Time;durP1;ratioP1;P1;durP2;ratioP2;P2;SDS_P1;SDS_P2;PMS_P1;PMS_P2;Temp;Humidity;BMP_temperature;BMP_pressure;BME280_temperature;BME280_humidity;BME280_pressure;Samples;Min_cycle;Max_cycle;Signal;HPM_P1;HPM_P2
2022/07/30 00:00:10;;;;;;;7.87;7.17;;;;;;;;;;4992450;28;20448;-75
2022/07/30 00:02:38;;;;;;;8.40;7.77;;;;;;;;;;4992236;28;20904;-76
2022/07/30 00:05:05;;;;;;;8.67;7.77;;;;;;;;;;4995977;28;20476;-78
2022/07/30 00:07:34;;;;;;;8.40;7.70;;;;;;;;;;4999266;28;20444;-76
2022/07/30 00:10:01;;;;;;;9.23;8.53;;;;;;;;;;5005424;28;20451;-76
2022/07/30 00:12:28;;;;;;;9.73;8.80;;;;;;;;;;5012381;28;20923;-75
2022/07/30 00:14:55;;;;;;;8.33;7.70;;;;;;;;;;5011449;28;20486;-76
2022/07/30 00:17:23;;;;;;;8.97;8.17;;;;;;;;;;5010291;28;20462;-75
2022/07/30 00:19:50;;;;;;;9.77;8.90;;;;;;;;;;5011082;28;20506;-75
2022/07/30 00:22:17;;;;;;;8.67;7.97;;;;;;;;;;5013360;28;20542;-76
2022/07/30 00:24:44;;;;;;;9.13;8.33;;;;;;;;;;5014331;28;20463;-75
2022/07/30 00:27:13;;;;;;;9.47;8.67;;;;;;;;;;5014503;28;20494;-75
2022/07/30 00:29:40;;;;;;;8.87;8.27;;;;;;;;;;5014149;28;20442;-77
2022/07/30 00:32:07;;;;;;;9.27;8.20;;;;;;;;;;5014469;28;20443;-76
2022/07/30 00:34:35;;;;;;;8.23;7.63;;;;;;;;;;5014337;28;20467;-75
2022/07/30 00:37:02;;;;;;;8.30;7.73;;;;;;;;;;5013364;28;20482;-75
2022/07/30 00:39:29;;;;;;;8.27;7.60;;;;;;;;;;5013990;28;20497;-77
2022/07/30 00:41:58;;;;;;;8.77;8.07;;;;;;;;;;5013610;28;20494;-77
2022/07/30 00:44:25;;;;;;;7.73;7.13;;;;;;;;;;5013705;28;20526;-76
2022/07/30 00:46:52;;;;;;;7.67;7.17;;;;;;;;;;5014398;28;20451;-76
2022/07/30 00:49:20;;;;;;;8.17;7.53;;;;;;;;;;5014090;28;20478;-76
2022/07/30 00:51:48;;;;;;;7.77;7.17;;;;;;;;;;5013694;28;21026;-75
2022/07/30 00:54:15;;;;;;;7.83;7.33;;;;;;;;;;5013528;28;20459;-75
2022/07/30 00:56:43;;;;;;;6.93;6.43;;;;;;;;;;5013875;28;20882;-76
2022/07/30 00:59:10;;;;;;;8.50;7.80;;;;;;;;;;5013874;28;20439;-77
2022/07/30 01:01:37;;;;;;;8.83;7.43;;;;;;;;;;5013959;28;20447;-75
2022/07/30 01:04:07;;;;;;;7.20;6.77;;;;;;;;;;5013604;28;20467;-75
2022/07/30 01:06:34;;;;;;;7.73;7.13;;;;;;;;;;5013936;28;20836;-77
2022/07/30 01:09:02;;;;;;;7.07;6.53;;;;;;;;;;5013407;28;20455;-76
2022/07/30 01:11:42;;;;;;;6.83;6.33;;;;;;;;;;5013415;28;20529;-77
2022/07/30 01:14:10;;;;;;;7.33;6.60;;;;;;;;;;5013277;28;20479;-76
2022/07/30 01:16:38;;;;;;;6.57;6.07;;;;;;;;;;5013622;28;20443;-77
2022/07/30 01:21:59;;;;;;;7.20;6.80;;;;;;;;;;5013197;28;20546;-76
2022/07/30 01:24:31;;;;;;;8.00;7.30;;;;;;;;;;5013276;28;20525;-75
2022/07/30 01:26:59;;;;;;;7.90;7.30;;;;;;;;;;5013444;28;20448;-76
2022/07/30 01:29:27;;;;;;;7.43;6.83;;;;;;;;;;5013156;28;20871;-75
2022/07/30 01:31:58;;;;;;;6.33;5.93;;;;;;;;;;5012963;28;20510;-76
2022/07/30 01:34:26;;;;;;;6.73;6.13;;;;;;;;;;5011981;28;20482;-74
2022/07/30 01:36:54;;;;;;;6.40;5.97;;;;;;;;;;5013231;28;20450;-75
2022/07/30 01:39:21;;;;;;;5.57;5.17;;;;;;;;;;5013156;28;20450;-74
2022/07/30 01:41:50;;;;;;;5.90;5.50;;;;;;;;;;5013166;28;20443;-75
2022/07/30 01:44:19;;;;;;;6.67;6.07;;;;;;;;;;5012353;28;20883;-76
2022/07/30 01:46:46;;;;;;;7.03;6.27;;;;;;;;;;5013029;28;20459;-76
2022/07/30 01:49:14;;;;;;;7.00;6.30;;;;;;;;;;5013172;28;20448;-76
2022/07/30 01:51:42;;;;;;;7.00;6.37;;;;;;;;;;5012824;28;20510;-75
2022/07/30 01:54:11;;;;;;;6.10;5.60;;;;;;;;;;5012631;28;20467;-77
2022/07/30 01:56:38;;;;;;;6.13;5.73;;;;;;;;;;5012659;28;20804;-76
2022/07/30 01:59:07;;;;;;;6.13;5.73;;;;;;;;;;5013016;28;20454;-75
2022/07/30 02:01:35;;;;;;;5.70;5.40;;;;;;;;;;5012637;28;20447;-75
2022/07/30 02:04:03;;;;;;;7.70;5.27;;;;;;;;;;5012251;28;20487;-75
2022/07/30 02:06:32;;;;;;;6.20;5.30;;;;;;;;;;5012849;28;21005;-74
2022/07/30 02:09:01;;;;;;;5.97;5.57;;;;;;;;;;5013149;28;20446;-76
2022/07/30 02:14:18;;;;;;;5.60;5.20;;;;;;;;;;5001081;28;20587;-76
2022/07/30 02:16:48;;;;;;;8.40;5.13;;;;;;;;;;4998070;28;20499;-75
2022/07/30 02:19:16;;;;;;;5.87;5.43;;;;;;;;;;4995998;28;20440;-76
2022/07/30 02:21:46;;;;;;;5.23;4.93;;;;;;;;;;4996796;28;20471;-75
2022/07/30 02:24:13;;;;;;;6.67;6.17;;;;;;;;;;4996415;28;20534;-77
2022/07/30 02:26:42;;;;;;;5.47;5.07;;;;;;;;;;4996432;28;20968;-76
2022/07/30 02:29:10;;;;;;;6.53;5.93;;;;;;;;;;4992471;28;21011;-77
2022/07/30 02:31:37;;;;;;;7.00;6.40;;;;;;;;;;4992493;28;20436;-76
2022/07/30 02:34:07;;;;;;;9.83;6.37;;;;;;;;;;4991924;28;21007;-76
2022/07/30 02:36:35;;;;;;;10.20;6.07;;;;;;;;;;4992438;28;20459;-77
2022/07/30 02:39:04;;;;;;;6.13;5.73;;;;;;;;;;4992107;28;20472;-76
2022/07/30 02:41:31;;;;;;;6.60;6.00;;;;;;;;;;4992916;28;20440;-76
2022/07/30 02:44:00;;;;;;;6.10;5.70;;;;;;;;;;4991429;28;20522;-75
2022/07/30 02:46:27;;;;;;;5.60;5.30;;;;;;;;;;4992327;28;20448;-77
2022/07/30 02:48:55;;;;;;;6.60;6.00;;;;;;;;;;4992269;28;21166;-76
2022/07/30 02:51:24;;;;;;;6.20;5.70;;;;;;;;;;4992930;28;20452;-76
2022/07/30 02:53:52;;;;;;;6.30;5.70;;;;;;;;;;4994136;28;20527;-76
2022/07/30 02:56:20;;;;;;;6.73;6.13;;;;;;;;;;4993321;28;20444;-76
2022/07/30 02:58:47;;;;;;;6.60;6.07;;;;;;;;;;4992582;28;20444;-76
2022/07/30 03:01:16;;;;;;;6.37;5.77;;;;;;;;;;4992581;28;20448;-77
2022/07/30 03:03:44;;;;;;;6.80;6.30;;;;;;;;;;4993342;28;20484;-77
2022/07/30 03:06:12;;;;;;;6.63;6.13;;;;;;;;;;4996615;28;20452;-75
2022/07/30 03:08:40;;;;;;;6.50;5.90;;;;;;;;;;4996597;28;20452;-76
2022/07/30 03:11:08;;;;;;;6.17;5.77;;;;;;;;;;5009867;28;20439;-77
2022/07/30 03:13:35;;;;;;;5.87;5.37;;;;;;;;;;5011475;28;20475;-77
2022/07/30 03:16:04;;;;;;;6.90;6.20;;;;;;;;;;5012862;28;20445;-77
2022/07/30 03:18:33;;;;;;;6.50;5.73;;;;;;;;;;5012545;28;20436;-77
2022/07/30 03:21:01;;;;;;;5.83;5.43;;;;;;;;;;5011642;28;20447;-75
2022/07/30 03:23:28;;;;;;;6.93;6.33;;;;;;;;;;5010276;28;20487;-75
2022/07/30 03:25:58;;;;;;;6.10;5.70;;;;;;;;;;5011498;28;20448;-76
2022/07/30 03:28:25;;;;;;;6.30;5.80;;;;;;;;;;5011782;28;20446;-76
2022/07/30 03:30:53;;;;;;;5.87;5.37;;;;;;;;;;5011466;28;20463;-76
2022/07/30 03:33:20;;;;;;;6.30;5.80;;;;;;;;;;5011141;28;20518;-77
2022/07/30 03:35:48;;;;;;;5.83;5.40;;;;;;;;;;5011485;28;20455;-75
2022/07/30 03:38:15;;;;;;;5.90;5.40;;;;;;;;;;5011582;28;20497;-77
2022/07/30 03:40:43;;;;;;;6.13;5.73;;;;;;;;;;5011355;28;20939;-77
2022/07/30 03:43:12;;;;;;;6.20;5.70;;;;;;;;;;5010798;28;20544;-76
2022/07/30 03:45:40;;;;;;;5.80;5.40;;;;;;;;;;5010847;28;20458;-76
2022/07/30 03:48:07;;;;;;;5.90;5.20;;;;;;;;;;5010861;28;20454;-76
2022/07/30 03:50:35;;;;;;;6.30;5.70;;;;;;;;;;5011051;28;20501;-75
2022/07/30 03:53:04;;;;;;;9.77;6.53;;;;;;;;;;5010462;28;20439;-76
2022/07/30 03:55:31;;;;;;;6.23;5.60;;;;;;;;;;5010163;28;20806;-76
2022/07/30 03:57:58;;;;;;;6.07;5.57;;;;;;;;;;5010451;28;20824;-77
2022/07/30 04:00:27;;;;;;;6.40;5.80;;;;;;;;;;5011060;28;20451;-76
2022/07/30 04:02:54;;;;;;;6.60;6.00;;;;;;;;;;5010880;28;20509;-75
2022/07/30 04:05:21;;;;;;;7.30;6.10;;;;;;;;;;5011384;28;20471;-76
2022/07/30 04:07:49;;;;;;;6.20;5.70;;;;;;;;;;5010971;28;20521;-75
2022/07/30 04:10:16;;;;;;;5.87;5.40;;;;;;;;;;5000258;28;20503;-75
2022/07/30 04:12:43;;;;;;;10.47;5.70;;;;;;;;;;4991046;28;20871;-75
2022/07/30 04:15:10;;;;;;;8.93;7.40;;;;;;;;;;4991473;28;20826;-77
2022/07/30 04:17:41;;;;;;;7.73;7.00;;;;;;;;;;4991009;28;20531;-76
2022/07/30 04:20:10;;;;;;;7.43;6.77;;;;;;;;;;4991244;28;20549;-76
2022/07/30 04:22:38;;;;;;;7.80;7.10;;;;;;;;;;4990756;28;20543;-75
2022/07/30 04:25:06;;;;;;;7.20;6.60;;;;;;;;;;4990517;28;20572;-76
2022/07/30 04:27:34;;;;;;;6.40;5.90;;;;;;;;;;4990859;28;20540;-76
2022/07/30 04:30:01;;;;;;;6.77;6.27;;;;;;;;;;4997437;28;20458;-76
2022/07/30 04:32:29;;;;;;;6.20;5.80;;;;;;;;;;5009911;28;20451;-75
2022/07/30 04:34:57;;;;;;;6.50;5.97;;;;;;;;;;5010118;28;20463;-75
2022/07/30 04:37:25;;;;;;;6.83;6.10;;;;;;;;;;5010340;28;20451;-76
2022/07/30 04:39:54;;;;;;;7.10;6.60;;;;;;;;;;5009882;28;20450;-75
2022/07/30 04:42:22;;;;;;;6.17;5.77;;;;;;;;;;5010678;28;20455;-78
2022/07/30 04:44:49;;;;;;;6.63;6.13;;;;;;;;;;5010042;28;20494;-76
2022/07/30 04:47:16;;;;;;;8.50;6.87;;;;;;;;;;5010688;28;20535;-75
2022/07/30 04:49:43;;;;;;;9.10;6.53;;;;;;;;;;5010987;28;20496;-75
2022/07/30 04:52:12;;;;;;;7.17;6.67;;;;;;;;;;5010482;28;20451;-76
2022/07/30 04:54:41;;;;;;;7.23;6.73;;;;;;;;;;5009930;28;20463;-76
2022/07/30 04:57:09;;;;;;;6.73;6.23;;;;;;;;;;5010187;28;20459;-75
2022/07/30 04:59:37;;;;;;;6.90;6.40;;;;;;;;;;5010359;28;20501;-77
2022/07/30 05:02:04;;;;;;;9.47;7.00;;;;;;;;;;5010386;28;20868;-76
2022/07/30 05:04:32;;;;;;;7.33;5.97;;;;;;;;;;5009826;28;20541;-77
2022/07/30 05:06:59;;;;;;;7.20;6.60;;;;;;;;;;5010818;28;20447;-77
2022/07/30 05:09:28;;;;;;;6.53;6.03;;;;;;;;;;5014183;28;20447;-76
2022/07/30 05:11:56;;;;;;;6.83;6.33;;;;;;;;;;5014215;28;20443;-75
2022/07/30 05:14:23;;;;;;;7.20;6.57;;;;;;;;;;5014007;28;20518;-76
2022/07/30 05:16:50;;;;;;;13.23;6.37;;;;;;;;;;5014254;28;20497;-76
2022/07/30 05:19:17;;;;;;;6.70;6.10;;;;;;;;;;5013763;28;20450;-75
2022/07/30 05:21:44;;;;;;;7.27;6.43;;;;;;;;;;5014090;28;20462;-76
2022/07/30 05:24:12;;;;;;;7.87;7.07;;;;;;;;;;5013111;28;20873;-76
2022/07/30 05:26:40;;;;;;;23.90;21.50;;;;;;;;;;5013228;28;20794;-77
2022/07/30 05:29:07;;;;;;;13.17;12.07;;;;;;;;;;5014171;28;20494;-77
2022/07/30 05:31:34;;;;;;;11.30;9.90;;;;;;;;;;5014308;28;20451;-75
2022/07/30 05:34:01;;;;;;;7.93;7.23;;;;;;;;;;5013092;28;20814;-75
2022/07/30 05:36:28;;;;;;;6.40;5.80;;;;;;;;;;5013529;28;20443;-75
2022/07/30 05:38:55;;;;;;;6.90;6.20;;;;;;;;;;5013706;28;20455;-76
2022/07/30 05:41:22;;;;;;;6.40;6.00;;;;;;;;;;5014752;28;21003;-76
2022/07/30 05:43:50;;;;;;;7.43;6.07;;;;;;;;;;5014516;28;20478;-76
2022/07/30 05:46:17;;;;;;;11.20;9.60;;;;;;;;;;5014715;28;20465;-76
2022/07/30 05:48:44;;;;;;;8.63;7.83;;;;;;;;;;5014871;28;21077;-76
2022/07/30 05:51:11;;;;;;;7.03;6.40;;;;;;;;;;5015533;28;20506;-76
2022/07/30 05:53:38;;;;;;;7.93;6.70;;;;;;;;;;5015040;28;20897;-78
2022/07/30 05:56:06;;;;;;;7.57;6.77;;;;;;;;;;5017436;28;20448;-75
2022/07/30 05:58:35;;;;;;;6.10;5.60;;;;;;;;;;5017943;28;20451;-77
2022/07/30 06:01:04;;;;;;;7.63;6.43;;;;;;;;;;5014309;28;20501;-78
2022/07/30 06:03:31;;;;;;;8.90;6.57;;;;;;;;;;5015262;28;20941;-76
2022/07/30 06:05:58;;;;;;;9.30;6.17;;;;;;;;;;5014571;28;20470;-77
2022/07/30 06:08:25;;;;;;;6.20;5.60;;;;;;;;;;5012978;28;20443;-75
2022/07/30 06:10:52;;;;;;;8.10;5.40;;;;;;;;;;4998987;28;20455;-75
2022/07/30 06:13:19;;;;;;;7.03;6.33;;;;;;;;;;5004371;28;20448;-77
2022/07/30 06:15:46;;;;;;;6.43;5.83;;;;;;;;;;5012427;28;20435;-76
2022/07/30 06:18:14;;;;;;;6.10;5.50;;;;;;;;;;5012484;28;20443;-76
2022/07/30 06:20:41;;;;;;;7.20;6.50;;;;;;;;;;5008400;28;20458;-75
2022/07/30 06:23:08;;;;;;;7.47;6.70;;;;;;;;;;5010821;28;20482;-75
2022/07/30 06:25:35;;;;;;;9.57;6.60;;;;;;;;;;5013715;28;20476;-75
2022/07/30 06:28:02;;;;;;;6.93;6.33;;;;;;;;;;5013446;28;20930;-75
2022/07/30 06:30:30;;;;;;;8.60;6.30;;;;;;;;;;5012765;28;20447;-77
2022/07/30 06:32:57;;;;;;;7.17;6.57;;;;;;;;;;5012067;28;20455;-78
2022/07/30 06:35:25;;;;;;;6.33;5.70;;;;;;;;;;5011880;28;20467;-75
2022/07/30 06:37:52;;;;;;;7.43;6.13;;;;;;;;;;5012207;28;20470;-76
2022/07/30 06:40:20;;;;;;;7.03;5.60;;;;;;;;;;5013110;28;20509;-79
2022/07/30 06:42:47;;;;;;;6.53;5.93;;;;;;;;;;5013415;28;20507;-76
2022/07/30 06:45:14;;;;;;;6.10;5.30;;;;;;;;;;5013338;28;20934;-76
2022/07/30 06:47:41;;;;;;;6.63;5.80;;;;;;;;;;5013332;28;20497;-76
2022/07/30 06:50:09;;;;;;;6.47;5.87;;;;;;;;;;5013094;28;20501;-75
2022/07/30 06:52:37;;;;;;;6.73;6.23;;;;;;;;;;5012763;28;20586;-76
2022/07/30 06:55:04;;;;;;;7.00;6.40;;;;;;;;;;5013062;28;20876;-76
2022/07/30 06:57:31;;;;;;;7.87;6.03;;;;;;;;;;5013139;28;20858;-76
2022/07/30 06:59:58;;;;;;;5.80;5.30;;;;;;;;;;5013282;28;20443;-77
2022/07/30 07:02:25;;;;;;;6.70;5.40;;;;;;;;;;5013342;28;20447;-77
2022/07/30 07:04:52;;;;;;;6.73;6.07;;;;;;;;;;5013338;28;20561;-76
2022/07/30 07:07:19;;;;;;;7.17;6.53;;;;;;;;;;5013172;28;20498;-76
2022/07/30 07:09:48;;;;;;;9.13;6.60;;;;;;;;;;5012859;28;21002;-75
2022/07/30 07:12:15;;;;;;;9.30;7.17;;;;;;;;;;5013155;28;20474;-76
2022/07/30 07:14:42;;;;;;;6.90;6.27;;;;;;;;;;5012860;28;20558;-75
2022/07/30 07:17:10;;;;;;;7.33;6.67;;;;;;;;;;5010403;28;20454;-76
2022/07/30 07:19:37;;;;;;;8.47;7.33;;;;;;;;;;5003594;28;20451;-78
2022/07/30 07:22:04;;;;;;;8.83;8.00;;;;;;;;;;4997994;28;21030;-79
2022/07/30 07:24:31;;;;;;;11.20;7.30;;;;;;;;;;5005191;28;20482;-75
2022/07/30 07:26:59;;;;;;;7.23;6.60;;;;;;;;;;5000679;28;20511;-77
2022/07/30 07:29:26;;;;;;;6.50;5.90;;;;;;;;;;5012874;28;20494;-75
2022/07/30 07:31:53;;;;;;;6.40;5.90;;;;;;;;;;5011699;28;20497;-76
2022/07/30 07:34:20;;;;;;;6.93;6.43;;;;;;;;;;5012434;28;20567;-78
2022/07/30 07:36:47;;;;;;;6.57;5.60;;;;;;;;;;5012662;28;20494;-76
2022/07/30 07:39:14;;;;;;;6.87;5.50;;;;;;;;;;5012704;28;20443;-76
2022/07/30 07:41:41;;;;;;;7.07;6.37;;;;;;;;;;5012419;28;20448;-76
2022/07/30 07:44:10;;;;;;;6.20;5.70;;;;;;;;;;5006355;28;20991;-76
2022/07/30 07:46:37;;;;;;;7.70;6.10;;;;;;;;;;5003358;28;20887;-77
2022/07/30 07:49:04;;;;;;;6.80;5.73;;;;;;;;;;5012915;28;20455;-76
2022/07/30 07:51:31;;;;;;;6.40;5.83;;;;;;;;;;5006011;28;20507;-77
2022/07/30 07:53:58;;;;;;;6.40;5.10;;;;;;;;;;5002629;28;20464;-76
2022/07/30 07:56:25;;;;;;;6.43;5.93;;;;;;;;;;5012057;28;20493;-76
2022/07/30 07:58:52;;;;;;;5.67;5.17;;;;;;;;;;5012448;28;20461;-76
2022/07/30 08:01:21;;;;;;;6.30;5.80;;;;;;;;;;5012323;28;20458;-76
2022/07/30 08:03:48;;;;;;;6.20;5.70;;;;;;;;;;5011357;28;20884;-77
2022/07/30 08:06:15;;;;;;;6.27;5.73;;;;;;;;;;5011771;28;20448;-76
2022/07/30 08:08:42;;;;;;;5.63;5.13;;;;;;;;;;5011826;28;20506;-77
2022/07/30 08:11:09;;;;;;;5.80;5.40;;;;;;;;;;5012353;28;20501;-75
2022/07/30 08:13:36;;;;;;;4.43;4.20;;;;;;;;;;5011577;28;20459;-77
2022/07/30 08:16:03;;;;;;;5.27;4.73;;;;;;;;;;5010342;28;20428;-77
2022/07/30 08:18:32;;;;;;;4.87;4.47;;;;;;;;;;4996326;28;20935;-75
2022/07/30 08:20:59;;;;;;;6.03;4.97;;;;;;;;;;5003345;28;20451;-77
2022/07/30 08:23:26;;;;;;;4.90;4.47;;;;;;;;;;5005184;28;20471;-76
2022/07/30 08:25:53;;;;;;;5.13;4.70;;;;;;;;;;5000216;28;20484;-77
2022/07/30 08:28:20;;;;;;;6.33;4.90;;;;;;;;;;4992820;28;20444;-75
2022/07/30 08:30:48;;;;;;;4.53;4.23;;;;;;;;;;5002077;28;21025;-78
2022/07/30 08:33:15;;;;;;;5.57;5.00;;;;;;;;;;5000064;28;20546;-75
2022/07/30 08:35:44;;;;;;;5.33;4.93;;;;;;;;;;5001267;28;20502;-76
2022/07/30 08:38:11;;;;;;;5.43;4.00;;;;;;;;;;5009443;28;20847;-75
2022/07/30 08:40:38;;;;;;;5.70;5.20;;;;;;;;;;5011609;28;20439;-75
2022/07/30 08:43:05;;;;;;;5.67;4.80;;;;;;;;;;5013459;28;20733;-76
2022/07/30 08:45:33;;;;;;;4.23;3.83;;;;;;;;;;5015136;28;20529;-77
2022/07/30 08:48:01;;;;;;;5.10;4.60;;;;;;;;;;5015204;28;20988;-76
2022/07/30 08:50:28;;;;;;;7.90;4.67;;;;;;;;;;5015775;28;20474;-77
2022/07/30 08:52:56;;;;;;;5.80;4.60;;;;;;;;;;5015049;28;20530;-78
2022/07/30 08:55:24;;;;;;;4.60;4.20;;;;;;;;;;5015455;28;20455;-76
2022/07/30 08:57:51;;;;;;;4.37;4.10;;;;;;;;;;5015347;28;20821;-76
2022/07/30 09:00:19;;;;;;;4.20;4.00;;;;;;;;;;5015010;28;20451;-77
2022/07/30 09:02:46;;;;;;;4.87;4.40;;;;;;;;;;5015267;28;20443;-77
2022/07/30 09:05:13;;;;;;;5.77;4.53;;;;;;;;;;5014707;28;20495;-77
2022/07/30 09:07:41;;;;;;;5.17;4.77;;;;;;;;;;5012089;28;20822;-76
2022/07/30 09:10:10;;;;;;;5.43;4.30;;;;;;;;;;5012203;28;21030;-77
2022/07/30 09:12:38;;;;;;;4.17;3.87;;;;;;;;;;5013755;28;20460;-77
2022/07/30 09:15:07;;;;;;;3.80;3.60;;;;;;;;;;5008723;28;20482;-77
2022/07/30 09:17:52;;;;;;;4.43;3.90;;;;;;;;;;5019074;28;20446;-76
2022/07/30 09:20:20;;;;;;;5.83;4.63;;;;;;;;;;5017071;28;20456;-76
2022/07/30 09:22:48;;;;;;;4.00;3.70;;;;;;;;;;5019604;28;20443;-76
2022/07/30 09:25:16;;;;;;;5.07;4.67;;;;;;;;;;5021193;28;20475;-77
2022/07/30 09:27:47;;;;;;;4.80;4.30;;;;;;;;;;5018539;28;20435;-76
2022/07/30 09:30:14;;;;;;;6.57;4.47;;;;;;;;;;5015972;28;20451;-76
2022/07/30 09:32:49;;;;;;;4.83;4.33;;;;;;;;;;5020378;28;20487;-75
2022/07/30 09:35:16;;;;;;;4.90;4.50;;;;;;;;;;5022920;28;20465;-76
2022/07/30 09:37:44;;;;;;;4.20;3.80;;;;;;;;;;5018791;28;20447;-76
2022/07/30 09:40:12;;;;;;;4.80;4.30;;;;;;;;;;5015268;28;20473;-77
2022/07/30 09:42:40;;;;;;;4.37;4.00;;;;;;;;;;5014581;28;20447;-76
2022/07/30 09:45:09;;;;;;;4.33;4.03;;;;;;;;;;5014901;28;20479;-78
2022/07/30 09:47:36;;;;;;;4.30;4.00;;;;;;;;;;5014634;28;20443;-76
2022/07/30 09:50:05;;;;;;;3.83;3.53;;;;;;;;;;5013996;28;20959;-77
2022/07/30 09:52:32;;;;;;;4.30;4.00;;;;;;;;;;5014031;28;20599;-76
2022/07/30 09:54:59;;;;;;;4.00;3.60;;;;;;;;;;5012975;28;21001;-75
2022/07/30 09:57:26;;;;;;;6.30;3.30;;;;;;;;;;5014106;28;20444;-76
2022/07/30 09:59:55;;;;;;;4.07;3.10;;;;;;;;;;5013922;28;20450;-76
2022/07/30 10:02:22;;;;;;;5.20;3.30;;;;;;;;;;5013660;28;20470;-77
2022/07/30 10:04:49;;;;;;;3.87;3.57;;;;;;;;;;5013551;28;20479;-77
2022/07/30 10:07:18;;;;;;;3.57;3.27;;;;;;;;;;5013961;28;20758;-76
2022/07/30 10:09:45;;;;;;;4.83;3.97;;;;;;;;;;5014043;28;20475;-77
2022/07/30 10:12:14;;;;;;;3.40;3.10;;;;;;;;;;5014411;28;20451;-75
2022/07/30 10:14:44;;;;;;;3.70;3.40;;;;;;;;;;5013706;28;20475;-76
2022/07/30 10:17:12;;;;;;;6.33;4.03;;;;;;;;;;5013662;28;20452;-76
2022/07/30 10:19:39;;;;;;;6.00;3.37;;;;;;;;;;5013921;28;20436;-77
2022/07/30 10:22:06;;;;;;;6.00;3.80;;;;;;;;;;5013766;28;20448;-77
2022/07/30 10:24:35;;;;;;;3.53;3.23;;;;;;;;;;5013439;28;20819;-76
2022/07/30 10:27:03;;;;;;;3.07;2.87;;;;;;;;;;5007200;28;20509;-75
2022/07/30 10:29:30;;;;;;;5.37;3.80;;;;;;;;;;5013612;28;20997;-77
2022/07/30 10:31:57;;;;;;;3.80;3.40;;;;;;;;;;5013192;28;20450;-77
2022/07/30 10:34:26;;;;;;;3.00;2.80;;;;;;;;;;5013659;28;20530;-77
2022/07/30 10:36:57;;;;;;;6.27;3.33;;;;;;;;;;5013586;28;20490;-76
2022/07/30 10:39:26;;;;;;;4.30;3.90;;;;;;;;;;5013678;28;20456;-76
2022/07/30 10:41:58;;;;;;;3.93;3.57;;;;;;;;;;5013503;28;20509;-76
2022/07/30 10:44:43;;;;;;;3.80;2.73;;;;;;;;;;5013499;28;20463;-76
2022/07/30 10:47:12;;;;;;;3.47;3.13;;;;;;;;;;5013272;28;20435;-76
2022/07/30 10:49:41;;;;;;;3.40;2.67;;;;;;;;;;5013605;28;20521;-76
2022/07/30 10:52:08;;;;;;;3.73;3.17;;;;;;;;;;5013323;28;20451;-77
2022/07/30 10:54:36;;;;;;;3.27;2.80;;;;;;;;;;5013163;28;20468;-77
2022/07/30 10:57:04;;;;;;;3.47;3.17;;;;;;;;;;5021557;28;20467;-76
2022/07/30 10:59:51;;;;;;;3.17;2.87;;;;;;;;;;5017342;28;20447;-76
2022/07/30 11:02:21;;;;;;;6.67;2.97;;;;;;;;;;5012923;28;20497;-77
2022/07/30 11:04:49;;;;;;;3.80;3.50;;;;;;;;;;5015976;28;20521;-75
2022/07/30 11:07:30;;;;;;;2.93;2.70;;;;;;;;;;5020252;28;20443;-75
2022/07/30 11:09:59;;;;;;;3.83;2.73;;;;;;;;;;5012986;28;20447;-75
2022/07/30 11:12:46;;;;;;;2.83;2.67;;;;;;;;;;5001802;28;20451;-75
2022/07/30 11:15:13;;;;;;;3.67;3.37;;;;;;;;;;5001331;28;21078;-75
2022/07/30 11:18:02;;;;;;;2.90;2.70;;;;;;;;;;5000114;28;20959;-75
2022/07/30 11:20:31;;;;;;;3.10;2.90;;;;;;;;;;4992968;28;20495;-75
2022/07/30 11:23:11;;;;;;;2.80;2.70;;;;;;;;;;4992783;28;20499;-75
2022/07/30 11:25:40;;;;;;;6.33;2.90;;;;;;;;;;4992764;28;21043;-76
2022/07/30 11:28:07;;;;;;;3.00;2.60;;;;;;;;;;4992469;28;20448;-76
2022/07/30 11:30:35;;;;;;;3.50;3.20;;;;;;;;;;4993008;28;20444;-76
2022/07/30 11:33:20;;;;;;;3.47;2.67;;;;;;;;;;5008542;28;20475;-75
2022/07/30 11:36:05;;;;;;;5.40;2.73;;;;;;;;;;5009494;28;20440;-75
2022/07/30 11:38:47;;;;;;;2.80;2.47;;;;;;;;;;4994315;28;20460;-75
2022/07/30 11:41:14;;;;;;;3.60;2.40;;;;;;;;;;4994389;28;20909;-75
2022/07/30 11:43:41;;;;;;;3.57;2.77;;;;;;;;;;4993602;28;20456;-76
2022/07/30 11:46:09;;;;;;;2.93;2.73;;;;;;;;;;4992614;28;20516;-75
2022/07/30 11:48:37;;;;;;;3.40;2.67;;;;;;;;;;4992436;28;20448;-76
2022/07/30 11:51:05;;;;;;;2.97;2.77;;;;;;;;;;4992180;28;20538;-75
2022/07/30 11:53:33;;;;;;;3.40;2.77;;;;;;;;;;4992502;28;20523;-75
2022/07/30 11:56:01;;;;;;;3.90;2.70;;;;;;;;;;5009130;28;20456;-75
2022/07/30 11:58:30;;;;;;;2.63;2.47;;;;;;;;;;5012090;28;20439;-75
2022/07/30 12:00:59;;;;;;;2.67;2.47;;;;;;;;;;5012287;28;20477;-76
2022/07/30 12:03:27;;;;;;;2.37;2.27;;;;;;;;;;5011601;28;20558;-75
2022/07/30 12:05:54;;;;;;;3.83;2.57;;;;;;;;;;5012216;28;20597;-75
2022/07/30 12:08:23;;;;;;;3.33;3.03;;;;;;;;;;5012483;28;20547;-75
2022/07/30 12:11:00;;;;;;;2.77;2.57;;;;;;;;;;5012380;28;20534;-75
2022/07/30 12:13:27;;;;;;;2.80;2.60;;;;;;;;;;5011447;28;20474;-76
2022/07/30 12:15:54;;;;;;;3.33;2.30;;;;;;;;;;5011798;28;20432;-75
2022/07/30 12:18:25;;;;;;;5.30;2.30;;;;;;;;;;5011388;28;20443;-75
2022/07/30 12:20:55;;;;;;;2.30;2.10;;;;;;;;;;5013083;28;20467;-74
2022/07/30 12:23:24;;;;;;;3.87;2.60;;;;;;;;;;5012503;28;20454;-75
2022/07/30 12:25:51;;;;;;;2.27;2.17;;;;;;;;;;5012022;28;20490;-76
2022/07/30 12:28:22;;;;;;;2.30;2.10;;;;;;;;;;5011862;28;20936;-76
2022/07/30 12:30:49;;;;;;;4.00;2.07;;;;;;;;;;5011274;28;20474;-76
2022/07/30 12:33:16;;;;;;;3.60;2.30;;;;;;;;;;5011126;28;20934;-75
2022/07/30 12:35:44;;;;;;;2.20;2.10;;;;;;;;;;5011942;28;20443;-74
2022/07/30 12:38:12;;;;;;;2.43;2.23;;;;;;;;;;5011856;28;20493;-74
2022/07/30 12:40:52;;;;;;;2.23;2.07;;;;;;;;;;5011758;28;20463;-75
2022/07/30 12:43:34;;;;;;;4.23;2.20;;;;;;;;;;5013769;28;20447;-75
2022/07/30 12:46:01;;;;;;;2.00;1.90;;;;;;;;;;5013260;28;20471;-75
2022/07/30 12:48:28;;;;;;;3.80;2.43;;;;;;;;;;5012464;28;20497;-74
2022/07/30 12:51:04;;;;;;;2.37;2.17;;;;;;;;;;5011467;28;20451;-76
2022/07/30 12:53:31;;;;;;;2.50;1.80;;;;;;;;;;5011074;28;20477;-75
2022/07/30 12:56:12;;;;;;;2.80;2.60;;;;;;;;;;5011613;28;20443;-75
2022/07/30 12:58:39;;;;;;;2.23;1.93;;;;;;;;;;5011124;28;20927;-75
2022/07/30 13:01:07;;;;;;;3.77;2.43;;;;;;;;;;5010537;28;21096;-75
2022/07/30 13:03:38;;;;;;;5.10;2.30;;;;;;;;;;5010917;28;20463;-75
2022/07/30 13:06:12;;;;;;;2.20;2.10;;;;;;;;;;5010927;28;20509;-76
2022/07/30 13:08:46;;;;;;;1.93;1.73;;;;;;;;;;5011221;28;20447;-76
2022/07/30 13:11:15;;;;;;;2.00;1.40;;;;;;;;;;4993145;28;20918;-76
2022/07/30 13:13:42;;;;;;;2.70;1.97;;;;;;;;;;4991236;28;20480;-76
2022/07/30 13:16:09;;;;;;;2.00;1.83;;;;;;;;;;4991495;28;20928;-76
2022/07/30 13:18:37;;;;;;;2.10;2.00;;;;;;;;;;4991276;28;20448;-76
2022/07/30 13:21:06;;;;;;;2.33;1.83;;;;;;;;;;4991289;28;20933;-76
2022/07/30 13:23:34;;;;;;;2.80;2.00;;;;;;;;;;4991428;28;20507;-75
2022/07/30 13:26:01;;;;;;;2.63;2.43;;;;;;;;;;4991457;28;20566;-75
2022/07/30 13:28:32;;;;;;;2.40;2.30;;;;;;;;;;4991603;28;20932;-76
2022/07/30 13:30:59;;;;;;;2.07;1.97;;;;;;;;;;4994678;28;20453;-75
2022/07/30 13:33:26;;;;;;;1.90;1.80;;;;;;;;;;4994911;28;21066;-74
2022/07/30 13:35:53;;;;;;;2.30;2.20;;;;;;;;;;4995106;28;20579;-75
2022/07/30 13:38:20;;;;;;;1.90;1.80;;;;;;;;;;4994619;28;20689;-76
2022/07/30 13:40:47;;;;;;;2.03;1.93;;;;;;;;;;4994423;28;20479;-75
2022/07/30 13:43:14;;;;;;;2.10;2.00;;;;;;;;;;4994471;28;20447;-77
2022/07/30 13:45:42;;;;;;;2.10;2.00;;;;;;;;;;4994290;28;20444;-75
2022/07/30 13:48:09;;;;;;;2.70;2.00;;;;;;;;;;4994527;28;20808;-75
2022/07/30 13:50:37;;;;;;;2.37;2.23;;;;;;;;;;4994401;28;20448;-76
2022/07/30 13:53:04;;;;;;;4.60;2.17;;;;;;;;;;4993804;28;20480;-76
2022/07/30 13:55:31;;;;;;;2.00;1.83;;;;;;;;;;4994178;28;20444;-77
2022/07/30 13:57:58;;;;;;;1.97;1.80;;;;;;;;;;4994694;28;20448;-75
2022/07/30 14:00:31;;;;;;;2.77;2.57;;;;;;;;;;4994031;28;20440;-76
2022/07/30 14:02:59;;;;;;;2.43;2.13;;;;;;;;;;4994502;28;20448;-76
2022/07/30 14:05:26;;;;;;;2.30;2.10;;;;;;;;;;4994749;28;20528;-76
2022/07/30 14:07:53;;;;;;;2.40;2.20;;;;;;;;;;4994073;28;20852;-75
2022/07/30 14:10:21;;;;;;;4.93;1.97;;;;;;;;;;5005296;28;20444;-75
2022/07/30 14:12:48;;;;;;;2.10;2.00;;;;;;;;;;5013396;28;20443;-76
2022/07/30 14:15:15;;;;;;;2.80;2.60;;;;;;;;;;5013588;28;20566;-75
2022/07/30 14:17:42;;;;;;;4.03;2.07;;;;;;;;;;5013735;28;20439;-75
2022/07/30 14:20:11;;;;;;;2.27;2.17;;;;;;;;;;5013882;28;20501;-76
2022/07/30 14:22:38;;;;;;;2.90;2.20;;;;;;;;;;5013311;28;20547;-75
2022/07/30 14:25:06;;;;;;;2.40;2.20;;;;;;;;;;5013215;28;20525;-76
2022/07/30 14:27:33;;;;;;;2.17;2.07;;;;;;;;;;5013460;28;20494;-76
2022/07/30 14:30:00;;;;;;;2.17;2.07;;;;;;;;;;5013575;28;20456;-75
2022/07/30 14:32:27;;;;;;;2.13;2.00;;;;;;;;;;5013577;28;20493;-74
2022/07/30 14:34:54;;;;;;;4.10;2.57;;;;;;;;;;5013053;28;20546;-76
2022/07/30 14:37:22;;;;;;;5.10;2.03;;;;;;;;;;5013404;28;20436;-76
2022/07/30 14:39:49;;;;;;;2.40;2.20;;;;;;;;;;5012438;28;20435;-75
2022/07/30 14:42:16;;;;;;;2.20;2.10;;;;;;;;;;5013327;28;20951;-75
2022/07/30 14:44:43;;;;;;;2.40;2.17;;;;;;;;;;5012840;28;20978;-75
2022/07/30 14:47:10;;;;;;;5.03;2.27;;;;;;;;;;5013195;28;20537;-75
2022/07/30 14:49:37;;;;;;;3.00;2.80;;;;;;;;;;5017069;28;20466;-75
2022/07/30 14:52:05;;;;;;;2.00;1.90;;;;;;;;;;5024970;28;20442;-75
2022/07/30 14:54:33;;;;;;;2.00;1.90;;;;;;;;;;5026244;28;20498;-76